sensor_id;sensor_type;location;lat;lon;timestamp;P1;durP1;ratioP1;P2;durP2;ratioP2
5869;SDS011;2961;47.702;9.410;2023-07-13T00:00:49;9.07;;;6.27;;
5869;SDS011;2961;47.702;9.410;2023-07-13T00:03:16;11.23;;;5.73;;
5869;SDS011;2961;47.702;9.410;2023-07-13T00:05:43;6.00;;;5.47;;
5869;SDS011;2961;47.702;9.410;2023-07-13T00:08:09;6.23;;;4.80;;
5869;SDS011;2961;47.702;9.410;2023-07-13T00:10:38;7.60;;;5.50;;
5869;SDS011;2961;47.702;9.410;2023-07-13T00:13:07;7.33;;;5.57;;
5869;SDS011;2961;47.702;9.410;2023-07-13T00:15:34;6.47;;;4.93;;
5869;SDS011;2961;47.702;9.410;2023-07-13T00:18:01;5.10;;;4.63;;
5869;SDS011;2961;47.702;9.410;2023-07-13T00:20:28;13.10;;;6.20;;
5869;SDS011;2961;47.702;9.410;2023-07-13T00:22:54;5.97;;;5.10;;
5869;SDS011;2961;47.702;9.410;2023-07-13T00:25:22;11.13;;;5.67;;
5869;SDS011;2961;47.702;9.410;2023-07-13T00:27:51;5.57;;;4.80;;
5869;SDS011;2961;47.702;9.410;2023-07-13T00:30:19;6.10;;;5.50;;
5869;SDS011;2961;47.702;9.410;2023-07-13T00:32:46;5.77;;;5.27;;
5869;SDS011;2961;47.702;9.410;2023-07-13T00:35:13;10.60;;;5.87;;
5869;SDS011;2961;47.702;9.410;2023-07-13T00:37:40;5.67;;;5.13;;
5869;SDS011;2961;47.702;9.410;2023-07-13T00:40:09;6.40;;;5.23;;
5869;SDS011;2961;47.702;9.410;2023-07-13T00:42:36;8.43;;;4.60;;
5869;SDS011;2961;47.702;9.410;2023-07-13T00:45:04;7.00;;;5.20;;
5869;SDS011;2961;47.702;9.410;2023-07-13T00:47:34;8.17;;;5.43;;
5869;SDS011;2961;47.702;9.410;2023-07-13T00:50:01;8.73;;;5.23;;
5869;SDS011;2961;47.702;9.410;2023-07-13T00:52:31;6.67;;;6.00;;
5869;SDS011;2961;47.702;9.410;2023-07-13T00:54:58;6.17;;;5.57;;
5869;SDS011;2961;47.702;9.410;2023-07-13T00:57:25;8.63;;;5.37;;
5869;SDS011;2961;47.702;9.410;2023-07-13T00:59:54;8.20;;;6.30;;
5869;SDS011;2961;47.702;9.410;2023-07-13T01:02:24;6.30;;;5.70;;
5869;SDS011;2961;47.702;9.410;2023-07-13T01:04:53;8.43;;;6.70;;
5869;SDS011;2961;47.702;9.410;2023-07-13T01:07:20;9.40;;;5.47;;
5869;SDS011;2961;47.702;9.410;2023-07-13T01:09:47;10.90;;;6.30;;
5869;SDS011;2961;47.702;9.410;2023-07-13T01:12:14;10.70;;;6.17;;
5869;SDS011;2961;47.702;9.410;2023-07-13T01:14:41;10.73;;;7.17;;
5869;SDS011;2961;47.702;9.410;2023-07-13T01:17:08;8.10;;;6.37;;
5869;SDS011;2961;47.702;9.410;2023-07-13T01:19:36;11.53;;;6.97;;
5869;SDS011;2961;47.702;9.410;2023-07-13T01:22:06;9.27;;;6.47;;
5869;SDS011;2961;47.702;9.410;2023-07-13T01:24:36;7.53;;;6.13;;
5869;SDS011;2961;47.702;9.410;2023-07-13T01:27:05;8.87;;;6.90;;
5869;SDS011;2961;47.702;9.410;2023-07-13T01:29:34;7.30;;;5.67;;
5869;SDS011;2961;47.702;9.410;2023-07-13T01:32:07;7.67;;;6.13;;
5869;SDS011;2961;47.702;9.410;2023-07-13T01:34:35;6.53;;;5.70;;
5869;SDS011;2961;47.702;9.410;2023-07-13T01:37:03;7.30;;;5.73;;
5869;SDS011;2961;47.702;9.410;2023-07-13T01:39:32;8.63;;;5.90;;
5869;SDS011;2961;47.702;9.410;2023-07-13T01:41:59;15.27;;;6.40;;
5869;SDS011;2961;47.702;9.410;2023-07-13T01:44:26;5.77;;;5.20;;
5869;SDS011;2961;47.702;9.410;2023-07-13T01:46:53;7.17;;;5.40;;
5869;SDS011;2961;47.702;9.410;2023-07-13T01:49:19;11.93;;;5.63;;
5869;SDS011;2961;47.702;9.410;2023-07-13T01:51:46;7.80;;;5.60;;
5869;SDS011;2961;47.702;9.410;2023-07-13T01:54:15;6.87;;;5.90;;
5869;SDS011;2961;47.702;9.410;2023-07-13T01:56:41;7.23;;;5.80;;
5869;SDS011;2961;47.702;9.410;2023-07-13T01:59:08;9.73;;;5.53;;
5869;SDS011;2961;47.702;9.410;2023-07-13T02:01:35;8.93;;;5.90;;
5869;SDS011;2961;47.702;9.410;2023-07-13T02:04:02;7.30;;;6.20;;
5869;SDS011;2961;47.702;9.410;2023-07-13T02:06:29;6.77;;;6.17;;
5869;SDS011;2961;47.702;9.410;2023-07-13T02:08:57;16.07;;;5.10;;
5869;SDS011;2961;47.702;9.410;2023-07-13T02:14:47;9.53;;;5.17;;
5869;SDS011;2961;47.702;9.410;2023-07-13T02:17:15;8.07;;;5.43;;
5869;SDS011;2961;47.702;9.410;2023-07-13T02:19:41;8.90;;;5.67;;
5869;SDS011;2961;47.702;9.410;2023-07-13T02:22:08;5.93;;;5.33;;
5869;SDS011;2961;47.702;9.410;2023-07-13T02:24:35;6.30;;;5.67;;
5869;SDS011;2961;47.702;9.410;2023-07-13T02:27:03;5.90;;;5.40;;
5869;SDS011;2961;47.702;9.410;2023-07-13T02:29:30;8.00;;;6.10;;
5869;SDS011;2961;47.702;9.410;2023-07-13T02:31:58;9.03;;;6.20;;
5869;SDS011;2961;47.702;9.410;2023-07-13T02:34:25;7.40;;;6.10;;
5869;SDS011;2961;47.702;9.410;2023-07-13T02:36:52;10.17;;;6.20;;
5869;SDS011;2961;47.702;9.410;2023-07-13T02:39:19;14.80;;;7.50;;
5869;SDS011;2961;47.702;9.410;2023-07-13T02:41:45;9.53;;;6.97;;
5869;SDS011;2961;47.702;9.410;2023-07-13T02:44:12;10.13;;;6.57;;
5869;SDS011;2961;47.702;9.410;2023-07-13T02:46:39;11.03;;;6.60;;
5869;SDS011;2961;47.702;9.410;2023-07-13T02:49:08;16.10;;;9.20;;
5869;SDS011;2961;47.702;9.410;2023-07-13T02:51:34;10.10;;;7.30;;
5869;SDS011;2961;47.702;9.410;2023-07-13T02:54:01;13.43;;;8.40;;
5869;SDS011;2961;47.702;9.410;2023-07-13T02:56:30;10.60;;;7.27;;
5869;SDS011;2961;47.702;9.410;2023-07-13T02:58:58;12.67;;;7.60;;
5869;SDS011;2961;47.702;9.410;2023-07-13T03:01:24;9.17;;;7.20;;
5869;SDS011;2961;47.702;9.410;2023-07-13T03:03:51;8.23;;;7.30;;
5869;SDS011;2961;47.702;9.410;2023-07-13T03:06:20;11.43;;;6.87;;
5869;SDS011;2961;47.702;9.410;2023-07-13T03:08:48;9.60;;;7.20;;
5869;SDS011;2961;47.702;9.410;2023-07-13T03:11:16;10.77;;;6.70;;
5869;SDS011;2961;47.702;9.410;2023-07-13T03:13:44;6.70;;;6.00;;
5869;SDS011;2961;47.702;9.410;2023-07-13T03:16:12;7.33;;;6.17;;
5869;SDS011;2961;47.702;9.410;2023-07-13T03:18:40;9.30;;;6.57;;
5869;SDS011;2961;47.702;9.410;2023-07-13T03:21:08;7.90;;;7.03;;
5869;SDS011;2961;47.702;9.410;2023-07-13T03:23:36;6.70;;;6.10;;
5869;SDS011;2961;47.702;9.410;2023-07-13T03:26:04;8.30;;;6.70;;
5869;SDS011;2961;47.702;9.410;2023-07-13T03:28:32;8.37;;;7.43;;
5869;SDS011;2961;47.702;9.410;2023-07-13T03:31:00;9.53;;;7.60;;
5869;SDS011;2961;47.702;9.410;2023-07-13T03:33:28;9.40;;;7.27;;
5869;SDS011;2961;47.702;9.410;2023-07-13T03:35:55;8.60;;;7.03;;
5869;SDS011;2961;47.702;9.410;2023-07-13T03:38:21;7.50;;;6.80;;
5869;SDS011;2961;47.702;9.410;2023-07-13T03:40:50;9.73;;;6.13;;
5869;SDS011;2961;47.702;9.410;2023-07-13T03:43:16;9.07;;;6.60;;
5869;SDS011;2961;47.702;9.410;2023-07-13T03:45:43;7.97;;;6.70;;
5869;SDS011;2961;47.702;9.410;2023-07-13T03:48:10;7.90;;;6.63;;
5869;SDS011;2961;47.702;9.410;2023-07-13T03:50:37;8.60;;;7.20;;
5869;SDS011;2961;47.702;9.410;2023-07-13T03:53:03;9.70;;;6.87;;
5869;SDS011;2961;47.702;9.410;2023-07-13T03:55:30;8.93;;;6.70;;
5869;SDS011;2961;47.702;9.410;2023-07-13T03:57:59;8.20;;;7.40;;
5869;SDS011;2961;47.702;9.410;2023-07-13T04:00:48;11.27;;;8.53;;
5869;SDS011;2961;47.702;9.410;2023-07-13T04:03:15;11.17;;;8.10;;
5869;SDS011;2961;47.702;9.410;2023-07-13T04:05:42;11.33;;;7.07;;
5869;SDS011;2961;47.702;9.410;2023-07-13T04:08:09;8.90;;;7.63;;
5869;SDS011;2961;47.702;9.410;2023-07-13T04:10:35;9.20;;;8.27;;
5869;SDS011;2961;47.702;9.410;2023-07-13T04:13:03;10.77;;;7.47;;
5869;SDS011;2961;47.702;9.410;2023-07-13T04:15:31;8.50;;;7.60;;
5869;SDS011;2961;47.702;9.410;2023-07-13T04:17:59;9.20;;;7.57;;
5869;SDS011;2961;47.702;9.410;2023-07-13T04:20:28;11.63;;;7.77;;
5869;SDS011;2961;47.702;9.410;2023-07-13T04:22:55;13.13;;;8.17;;
5869;SDS011;2961;47.702;9.410;2023-07-13T04:25:22;14.47;;;9.00;;
5869;SDS011;2961;47.702;9.410;2023-07-13T04:27:49;12.57;;;8.87;;
5869;SDS011;2961;47.702;9.410;2023-07-13T04:30:17;12.43;;;7.47;;
5869;SDS011;2961;47.702;9.410;2023-07-13T04:32:43;8.87;;;7.90;;
5869;SDS011;2961;47.702;9.410;2023-07-13T04:35:12;11.73;;;8.00;;
5869;SDS011;2961;47.702;9.410;2023-07-13T04:37:39;9.50;;;7.10;;
5869;SDS011;2961;47.702;9.410;2023-07-13T04:40:06;8.47;;;6.43;;
5869;SDS011;2961;47.702;9.410;2023-07-13T04:42:36;11.60;;;7.87;;
5869;SDS011;2961;47.702;9.410;2023-07-13T04:45:04;11.03;;;7.97;;
5869;SDS011;2961;47.702;9.410;2023-07-13T04:47:31;10.17;;;8.10;;
5869;SDS011;2961;47.702;9.410;2023-07-13T04:49:58;8.10;;;7.00;;
5869;SDS011;2961;47.702;9.410;2023-07-13T04:52:27;13.83;;;7.47;;
5869;SDS011;2961;47.702;9.410;2023-07-13T04:54:53;8.13;;;7.27;;
5869;SDS011;2961;47.702;9.410;2023-07-13T04:57:20;7.60;;;6.90;;
5869;SDS011;2961;47.702;9.410;2023-07-13T04:59:47;8.07;;;7.07;;
5869;SDS011;2961;47.702;9.410;2023-07-13T05:02:14;14.70;;;7.90;;
5869;SDS011;2961;47.702;9.410;2023-07-13T05:04:41;10.43;;;7.37;;
5869;SDS011;2961;47.702;9.410;2023-07-13T05:07:07;11.50;;;7.60;;
5869;SDS011;2961;47.702;9.410;2023-07-13T05:09:36;10.13;;;7.10;;
5869;SDS011;2961;47.702;9.410;2023-07-13T05:12:03;9.50;;;8.00;;
5869;SDS011;2961;47.702;9.410;2023-07-13T05:14:30;13.40;;;7.70;;
5869;SDS011;2961;47.702;9.410;2023-07-13T05:16:56;14.13;;;7.77;;
5869;SDS011;2961;47.702;9.410;2023-07-13T05:19:23;9.20;;;8.20;;
5869;SDS011;2961;47.702;9.410;2023-07-13T05:21:50;8.33;;;7.40;;
5869;SDS011;2961;47.702;9.410;2023-07-13T05:24:17;13.70;;;9.50;;
5869;SDS011;2961;47.702;9.410;2023-07-13T05:26:45;9.53;;;8.00;;
5869;SDS011;2961;47.702;9.410;2023-07-13T05:29:12;9.43;;;7.10;;
5869;SDS011;2961;47.702;9.410;2023-07-13T05:31:38;11.30;;;7.47;;
5869;SDS011;2961;47.702;9.410;2023-07-13T05:34:05;8.53;;;7.37;;
5869;SDS011;2961;47.702;9.410;2023-07-13T05:36:32;8.83;;;7.47;;
5869;SDS011;2961;47.702;9.410;2023-07-13T05:38:59;8.00;;;7.00;;
5869;SDS011;2961;47.702;9.410;2023-07-13T05:41:26;12.30;;;7.50;;
5869;SDS011;2961;47.702;9.410;2023-07-13T05:43:54;11.70;;;9.30;;
5869;SDS011;2961;47.702;9.410;2023-07-13T05:46:21;12.13;;;7.93;;
5869;SDS011;2961;47.702;9.410;2023-07-13T05:48:47;8.17;;;7.37;;
5869;SDS011;2961;47.702;9.410;2023-07-13T05:51:14;12.10;;;8.00;;
5869;SDS011;2961;47.702;9.410;2023-07-13T05:53:41;10.83;;;7.73;;
5869;SDS011;2961;47.702;9.410;2023-07-13T05:56:08;11.47;;;8.10;;
5869;SDS011;2961;47.702;9.410;2023-07-13T05:58:34;15.10;;;7.27;;
5869;SDS011;2961;47.702;9.410;2023-07-13T06:01:03;11.43;;;8.00;;
5869;SDS011;2961;47.702;9.410;2023-07-13T06:03:31;10.63;;;7.73;;
5869;SDS011;2961;47.702;9.410;2023-07-13T06:05:58;13.00;;;7.40;;
5869;SDS011;2961;47.702;9.410;2023-07-13T06:08:26;10.53;;;7.77;;
5869;SDS011;2961;47.702;9.410;2023-07-13T06:10:53;7.83;;;6.67;;
5869;SDS011;2961;47.702;9.410;2023-07-13T06:13:20;10.13;;;6.70;;
5869;SDS011;2961;47.702;9.410;2023-07-13T06:15:47;8.73;;;7.25;;
5869;SDS011;2961;47.702;9.410;2023-07-13T06:18:16;5.63;;;5.03;;
5869;SDS011;2961;47.702;9.410;2023-07-13T06:20:43;7.10;;;5.37;;
5869;SDS011;2961;47.702;9.410;2023-07-13T06:23:09;6.90;;;6.30;;
5869;SDS011;2961;47.702;9.410;2023-07-13T06:25:36;7.83;;;6.77;;
5869;SDS011;2961;47.702;9.410;2023-07-13T06:28:03;6.87;;;4.80;;
5869;SDS011;2961;47.702;9.410;2023-07-13T06:30:30;6.23;;;4.83;;
5869;SDS011;2961;47.702;9.410;2023-07-13T06:32:57;6.60;;;5.70;;
5869;SDS011;2961;47.702;9.410;2023-07-13T06:35:25;7.10;;;5.60;;
5869;SDS011;2961;47.702;9.410;2023-07-13T06:37:52;14.37;;;6.50;;
5869;SDS011;2961;47.702;9.410;2023-07-13T06:40:19;7.10;;;6.03;;
5869;SDS011;2961;47.702;9.410;2023-07-13T06:42:46;7.13;;;5.60;;
5869;SDS011;2961;47.702;9.410;2023-07-13T06:45:12;6.37;;;5.77;;
5869;SDS011;2961;47.702;9.410;2023-07-13T06:47:39;7.07;;;6.30;;
5869;SDS011;2961;47.702;9.410;2023-07-13T06:50:06;10.70;;;7.33;;
5869;SDS011;2961;47.702;9.410;2023-07-13T06:52:35;10.20;;;7.07;;
5869;SDS011;2961;47.702;9.410;2023-07-13T06:55:02;8.97;;;8.00;;
5869;SDS011;2961;47.702;9.410;2023-07-13T06:57:29;11.90;;;6.93;;
5869;SDS011;2961;47.702;9.410;2023-07-13T06:59:56;9.37;;;6.80;;
5869;SDS011;2961;47.702;9.410;2023-07-13T07:02:22;5.40;;;4.60;;
5869;SDS011;2961;47.702;9.410;2023-07-13T07:04:49;4.73;;;4.33;;
5869;SDS011;2961;47.702;9.410;2023-07-13T07:07:16;10.77;;;4.60;;
5869;SDS011;2961;47.702;9.410;2023-07-13T07:09:44;5.87;;;3.03;;
5869;SDS011;2961;47.702;9.410;2023-07-13T07:12:11;2.83;;;2.67;;
5869;SDS011;2961;47.702;9.410;2023-07-13T07:14:37;3.73;;;2.40;;
5869;SDS011;2961;47.702;9.410;2023-07-13T07:17:04;3.60;;;2.67;;
5869;SDS011;2961;47.702;9.410;2023-07-13T07:19:31;5.03;;;2.97;;
5869;SDS011;2961;47.702;9.410;2023-07-13T07:21:59;5.30;;;2.53;;
5869;SDS011;2961;47.702;9.410;2023-07-13T07:24:26;4.30;;;2.60;;
5869;SDS011;2961;47.702;9.410;2023-07-13T07:26:54;9.13;;;2.70;;
5869;SDS011;2961;47.702;9.410;2023-07-13T07:29:21;6.50;;;3.77;;
5869;SDS011;2961;47.702;9.410;2023-07-13T07:31:51;3.43;;;2.40;;
5869;SDS011;2961;47.702;9.410;2023-07-13T07:34:18;4.00;;;2.73;;
5869;SDS011;2961;47.702;9.410;2023-07-13T07:36:44;3.63;;;2.90;;
5869;SDS011;2961;47.702;9.410;2023-07-13T07:39:12;2.83;;;2.63;;
5869;SDS011;2961;47.702;9.410;2023-07-13T07:41:38;5.60;;;3.00;;
5869;SDS011;2961;47.702;9.410;2023-07-13T07:44:06;4.53;;;3.73;;
5869;SDS011;2961;47.702;9.410;2023-07-13T07:46:34;10.43;;;3.60;;
5869;SDS011;2961;47.702;9.410;2023-07-13T07:49:01;3.60;;;3.30;;
5869;SDS011;2961;47.702;9.410;2023-07-13T07:51:28;6.23;;;3.80;;
5869;SDS011;2961;47.702;9.410;2023-07-13T07:53:55;9.80;;;4.67;;
5869;SDS011;2961;47.702;9.410;2023-07-13T07:56:22;7.50;;;5.00;;
5869;SDS011;2961;47.702;9.410;2023-07-13T07:58:49;13.03;;;4.70;;
5869;SDS011;2961;47.702;9.410;2023-07-13T08:01:17;6.60;;;5.07;;
5869;SDS011;2961;47.702;9.410;2023-07-13T08:03:44;7.53;;;3.07;;
5869;SDS011;2961;47.702;9.410;2023-07-13T08:06:10;3.60;;;3.30;;
5869;SDS011;2961;47.702;9.410;2023-07-13T08:08:38;3.43;;;3.13;;
5869;SDS011;2961;47.702;9.410;2023-07-13T08:11:05;3.20;;;3.00;;
5869;SDS011;2961;47.702;9.410;2023-07-13T08:13:33;2.87;;;2.57;;
5869;SDS011;2961;47.702;9.410;2023-07-13T08:16:00;6.20;;;3.40;;
5869;SDS011;2961;47.702;9.410;2023-07-13T08:18:28;6.43;;;4.60;;
5869;SDS011;2961;47.702;9.410;2023-07-13T08:20:55;4.90;;;3.60;;
5869;SDS011;2961;47.702;9.410;2023-07-13T08:23:22;6.03;;;3.43;;
5869;SDS011;2961;47.702;9.410;2023-07-13T08:25:52;7.40;;;2.30;;
5869;SDS011;2961;47.702;9.410;2023-07-13T08:28:19;2.73;;;2.50;;
5869;SDS011;2961;47.702;9.410;2023-07-13T08:30:46;3.00;;;2.80;;
5869;SDS011;2961;47.702;9.410;2023-07-13T08:33:14;3.77;;;3.47;;
5869;SDS011;2961;47.702;9.410;2023-07-13T08:35:42;2.60;;;2.50;;
5869;SDS011;2961;47.702;9.410;2023-07-13T08:38:11;8.60;;;3.30;;
5869;SDS011;2961;47.702;9.410;2023-07-13T08:40:38;5.57;;;3.20;;
5869;SDS011;2961;47.702;9.410;2023-07-13T08:43:07;3.33;;;2.43;;
5869;SDS011;2961;47.702;9.410;2023-07-13T08:45:40;3.10;;;2.30;;
5869;SDS011;2961;47.702;9.410;2023-07-13T08:48:10;7.77;;;2.23;;
5869;SDS011;2961;47.702;9.410;2023-07-13T08:50:43;3.20;;;2.20;;
5869;SDS011;2961;47.702;9.410;2023-07-13T08:53:18;1.83;;;1.70;;
5869;SDS011;2961;47.702;9.410;2023-07-13T08:55:45;2.47;;;1.57;;
5869;SDS011;2961;47.702;9.410;2023-07-13T08:58:13;5.80;;;1.40;;
5869;SDS011;2961;47.702;9.410;2023-07-13T09:00:44;1.93;;;1.40;;
5869;SDS011;2961;47.702;9.410;2023-07-13T09:03:18;1.73;;;1.63;;
5869;SDS011;2961;47.702;9.410;2023-07-13T09:05:51;0.90;;;0.90;;
5869;SDS011;2961;47.702;9.410;2023-07-13T09:08:27;1.57;;;1.10;;
5869;SDS011;2961;47.702;9.410;2023-07-13T09:11:03;2.37;;;1.53;;
5869;SDS011;2961;47.702;9.410;2023-07-13T09:13:39;1.37;;;1.10;;
5869;SDS011;2961;47.702;9.410;2023-07-13T09:16:10;1.40;;;1.30;;
5869;SDS011;2961;47.702;9.410;2023-07-13T09:18:40;3.93;;;1.53;;
5869;SDS011;2961;47.702;9.410;2023-07-13T09:21:11;2.97;;;1.17;;
5869;SDS011;2961;47.702;9.410;2023-07-13T09:23:41;1.60;;;0.90;;
5869;SDS011;2961;47.702;9.410;2023-07-13T09:26:10;1.03;;;0.80;;
5869;SDS011;2961;47.702;9.410;2023-07-13T09:28:41;1.80;;;1.20;;
5869;SDS011;2961;47.702;9.410;2023-07-13T09:31:10;3.37;;;1.10;;
5869;SDS011;2961;47.702;9.410;2023-07-13T09:33:40;2.57;;;1.17;;
5869;SDS011;2961;47.702;9.410;2023-07-13T09:38:57;2.43;;;0.90;;
5869;SDS011;2961;47.702;9.410;2023-07-13T09:41:31;2.10;;;0.97;;
5869;SDS011;2961;47.702;9.410;2023-07-13T09:44:07;3.17;;;1.47;;
5869;SDS011;2961;47.702;9.410;2023-07-13T09:46:36;1.07;;;0.87;;
5869;SDS011;2961;47.702;9.410;2023-07-13T09:49:04;1.13;;;1.00;;
5869;SDS011;2961;47.702;9.410;2023-07-13T09:51:32;5.93;;;1.40;;
5869;SDS011;2961;47.702;9.410;2023-07-13T09:54:17;2.37;;;0.80;;
5869;SDS011;2961;47.702;9.410;2023-07-13T09:56:45;2.33;;;1.10;;
5869;SDS011;2961;47.702;9.410;2023-07-13T09:59:18;3.67;;;1.33;;
5869;SDS011;2961;47.702;9.410;2023-07-13T10:01:46;3.53;;;1.20;;
5869;SDS011;2961;47.702;9.410;2023-07-13T10:04:13;2.47;;;1.00;;
5869;SDS011;2961;47.702;9.410;2023-07-13T10:06:46;3.60;;;1.23;;
5869;SDS011;2961;47.702;9.410;2023-07-13T10:09:15;1.27;;;1.10;;
5869;SDS011;2961;47.702;9.410;2023-07-13T10:11:43;2.20;;;1.07;;
5869;SDS011;2961;47.702;9.410;2023-07-13T10:14:11;2.53;;;1.17;;
5869;SDS011;2961;47.702;9.410;2023-07-13T10:16:40;2.73;;;1.50;;
5869;SDS011;2961;47.702;9.410;2023-07-13T10:19:11;3.20;;;1.23;;
5869;SDS011;2961;47.702;9.410;2023-07-13T10:21:43;2.53;;;1.10;;
5869;SDS011;2961;47.702;9.410;2023-07-13T10:24:17;8.20;;;1.13;;
5869;SDS011;2961;47.702;9.410;2023-07-13T10:26:48;1.20;;;1.10;;
5869;SDS011;2961;47.702;9.410;2023-07-13T10:29:20;4.07;;;1.17;;
5869;SDS011;2961;47.702;9.410;2023-07-13T10:31:49;1.40;;;1.30;;
5869;SDS011;2961;47.702;9.410;2023-07-13T10:34:17;2.27;;;1.43;;
5869;SDS011;2961;47.702;9.410;2023-07-13T10:36:45;3.13;;;1.20;;
5869;SDS011;2961;47.702;9.410;2023-07-13T10:39:16;3.40;;;1.10;;
5869;SDS011;2961;47.702;9.410;2023-07-13T10:41:48;1.90;;;1.33;;
5869;SDS011;2961;47.702;9.410;2023-07-13T10:44:19;4.17;;;1.90;;
5869;SDS011;2961;47.702;9.410;2023-07-13T10:46:51;1.43;;;1.43;;
5869;SDS011;2961;47.702;9.410;2023-07-13T10:49:20;3.57;;;1.87;;
5869;SDS011;2961;47.702;9.410;2023-07-13T10:51:49;5.43;;;1.90;;
5869;SDS011;2961;47.702;9.410;2023-07-13T10:54:19;6.03;;;1.77;;
5869;SDS011;2961;47.702;9.410;2023-07-13T10:56:49;1.60;;;1.50;;
5869;SDS011;2961;47.702;9.410;2023-07-13T10:59:19;1.70;;;1.60;;
5869;SDS011;2961;47.702;9.410;2023-07-13T11:01:53;1.53;;;1.43;;
5869;SDS011;2961;47.702;9.410;2023-07-13T11:04:23;2.20;;;1.90;;
5869;SDS011;2961;47.702;9.410;2023-07-13T11:06:53;5.33;;;2.00;;
5869;SDS011;2961;47.702;9.410;2023-07-13T11:09:33;2.23;;;1.60;;
5869;SDS011;2961;47.702;9.410;2023-07-13T11:12:07;2.50;;;1.77;;
5869;SDS011;2961;47.702;9.410;2023-07-13T11:15:00;2.07;;;1.90;;
5869;SDS011;2961;47.702;9.410;2023-07-13T11:17:37;2.93;;;1.70;;
5869;SDS011;2961;47.702;9.410;2023-07-13T11:20:21;11.33;;;2.53;;
5869;SDS011;2961;47.702;9.410;2023-07-13T11:22:50;1.90;;;1.80;;
5869;SDS011;2961;47.702;9.410;2023-07-13T11:25:26;1.47;;;1.43;;
5869;SDS011;2961;47.702;9.410;2023-07-13T11:28:15;2.67;;;2.00;;
5869;SDS011;2961;47.702;9.410;2023-07-13T11:30:46;4.80;;;1.40;;
5869;SDS011;2961;47.702;9.410;2023-07-13T11:33:16;1.70;;;1.60;;
5869;SDS011;2961;47.702;9.410;2023-07-13T11:35:47;2.53;;;1.90;;
5869;SDS011;2961;47.702;9.410;2023-07-13T11:38:20;3.40;;;2.07;;
5869;SDS011;2961;47.702;9.410;2023-07-13T11:40:50;3.20;;;1.80;;
5869;SDS011;2961;47.702;9.410;2023-07-13T11:43:19;1.63;;;1.53;;
5869;SDS011;2961;47.702;9.410;2023-07-13T11:45:48;4.50;;;2.77;;
5869;SDS011;2961;47.702;9.410;2023-07-13T11:48:17;9.77;;;1.70;;
5869;SDS011;2961;47.702;9.410;2023-07-13T11:50:49;4.83;;;3.73;;
5869;SDS011;2961;47.702;9.410;2023-07-13T11:53:18;20.67;;;11.47;;
5869;SDS011;2961;47.702;9.410;2023-07-13T11:55:45;8.20;;;6.43;;
5869;SDS011;2961;47.702;9.410;2023-07-13T11:58:14;3.63;;;2.07;;
5869;SDS011;2961;47.702;9.410;2023-07-13T12:00:47;3.47;;;2.40;;
5869;SDS011;2961;47.702;9.410;2023-07-13T12:03:14;2.73;;;2.30;;
5869;SDS011;2961;47.702;9.410;2023-07-13T12:05:54;2.70;;;2.47;;
5869;SDS011;2961;47.702;9.410;2023-07-13T12:08:26;6.03;;;3.17;;
5869;SDS011;2961;47.702;9.410;2023-07-13T12:10:58;4.07;;;2.57;;
5869;SDS011;2961;47.702;9.410;2023-07-13T12:13:27;6.17;;;3.60;;
5869;SDS011;2961;47.702;9.410;2023-07-13T12:15:55;3.43;;;2.53;;
5869;SDS011;2961;47.702;9.410;2023-07-13T12:18:23;2.83;;;2.63;;
5869;SDS011;2961;47.702;9.410;2023-07-13T12:20:57;2.63;;;2.00;;
5869;SDS011;2961;47.702;9.410;2023-07-13T12:23:25;2.83;;;2.40;;
5869;SDS011;2961;47.702;9.410;2023-07-13T12:25:56;5.50;;;1.40;;
5869;SDS011;2961;47.702;9.410;2023-07-13T12:28:30;4.23;;;2.20;;
5869;SDS011;2961;47.702;9.410;2023-07-13T12:30:59;2.60;;;2.40;;
5869;SDS011;2961;47.702;9.410;2023-07-13T12:33:28;4.70;;;2.80;;
5869;SDS011;2961;47.702;9.410;2023-07-13T12:35:57;3.27;;;1.90;;
5869;SDS011;2961;47.702;9.410;2023-07-13T12:38:27;1.60;;;1.50;;
5869;SDS011;2961;47.702;9.410;2023-07-13T12:40:56;4.43;;;3.17;;
5869;SDS011;2961;47.702;9.410;2023-07-13T12:43:23;2.20;;;2.00;;
5869;SDS011;2961;47.702;9.410;2023-07-13T12:45:57;3.40;;;1.77;;
5869;SDS011;2961;47.702;9.410;2023-07-13T12:48:25;3.70;;;1.73;;
5869;SDS011;2961;47.702;9.410;2023-07-13T12:50:53;2.47;;;1.70;;
5869;SDS011;2961;47.702;9.410;2023-07-13T12:53:23;2.60;;;2.40;;
5869;SDS011;2961;47.702;9.410;2023-07-13T12:55:57;3.58;;;1.90;;
5869;SDS011;2961;47.702;9.410;2023-07-13T12:58:26;3.33;;;2.03;;
5869;SDS011;2961;47.702;9.410;2023-07-13T13:00:55;1.83;;;1.73;;
5869;SDS011;2961;47.702;9.410;2023-07-13T13:03:26;4.97;;;2.40;;
5869;SDS011;2961;47.702;9.410;2023-07-13T13:05:58;2.40;;;2.20;;
5869;SDS011;2961;47.702;9.410;2023-07-13T13:08:28;3.93;;;1.90;;
5869;SDS011;2961;47.702;9.410;2023-07-13T13:10:55;2.30;;;2.13;;
5869;SDS011;2961;47.702;9.410;2023-07-13T13:13:21;2.40;;;2.20;;
5869;SDS011;2961;47.702;9.410;2023-07-13T13:15:49;2.67;;;2.47;;
5869;SDS011;2961;47.702;9.410;2023-07-13T13:18:19;6.43;;;2.23;;
5869;SDS011;2961;47.702;9.410;2023-07-13T13:20:47;2.97;;;2.20;;
5869;SDS011;2961;47.702;9.410;2023-07-13T13:23:15;2.70;;;1.33;;
5869;SDS011;2961;47.702;9.410;2023-07-13T13:25:43;2.50;;;1.60;;
5869;SDS011;2961;47.702;9.410;2023-07-13T13:28:13;4.80;;;1.57;;
5869;SDS011;2961;47.702;9.410;2023-07-13T13:30:41;4.70;;;1.90;;
5869;SDS011;2961;47.702;9.410;2023-07-13T13:33:09;1.80;;;1.20;;
5869;SDS011;2961;47.702;9.410;2023-07-13T13:35:39;1.70;;;1.60;;
5869;SDS011;2961;47.702;9.410;2023-07-13T13:38:10;1.73;;;1.63;;
5869;SDS011;2961;47.702;9.410;2023-07-13T13:40:39;2.60;;;2.00;;
5869;SDS011;2961;47.702;9.410;2023-07-13T13:43:13;2.57;;;2.37;;
5869;SDS011;2961;47.702;9.410;2023-07-13T13:45:41;3.37;;;1.83;;
5869;SDS011;2961;47.702;9.410;2023-07-13T13:48:11;3.33;;;2.03;;
5869;SDS011;2961;47.702;9.410;2023-07-13T13:50:42;1.83;;;1.50;;
5869;SDS011;2961;47.702;9.410;2023-07-13T13:53:10;1.97;;;1.80;;
5869;SDS011;2961;47.702;9.410;2023-07-13T13:55:38;3.10;;;2.03;;
5869;SDS011;2961;47.702;9.410;2023-07-13T13:58:06;2.33;;;2.10;;
5869;SDS011;2961;47.702;9.410;2023-07-13T14:00:34;3.57;;;2.07;;
5869;SDS011;2961;47.702;9.410;2023-07-13T14:03:01;2.67;;;2.20;;
5869;SDS011;2961;47.702;9.410;2023-07-13T14:05:28;1.87;;;1.70;;
5869;SDS011;2961;47.702;9.410;2023-07-13T14:07:56;2.50;;;2.10;;
5869;SDS011;2961;47.702;9.410;2023-07-13T14:10:24;5.43;;;1.57;;
5869;SDS011;2961;47.702;9.410;2023-07-13T14:12:53;2.93;;;1.80;;
5869;SDS011;2961;47.702;9.410;2023-07-13T14:15:22;1.73;;;1.53;;
5869;SDS011;2961;47.702;9.410;2023-07-13T14:17:51;3.67;;;2.03;;
5869;SDS011;2961;47.702;9.410;2023-07-13T14:20:19;3.67;;;1.50;;
5869;SDS011;2961;47.702;9.410;2023-07-13T14:22:49;2.40;;;1.50;;
5869;SDS011;2961;47.702;9.410;2023-07-13T14:25:18;3.03;;;2.10;;
5869;SDS011;2961;47.702;9.410;2023-07-13T14:27:46;1.73;;;1.63;;
5869;SDS011;2961;47.702;9.410;2023-07-13T14:30:19;1.90;;;1.63;;
5869;SDS011;2961;47.702;9.410;2023-07-13T14:32:47;2.00;;;1.90;;
5869;SDS011;2961;47.702;9.410;2023-07-13T14:35:15;3.63;;;2.03;;
5869;SDS011;2961;47.702;9.410;2023-07-13T14:37:45;1.67;;;1.57;;
5869;SDS011;2961;47.702;9.410;2023-07-13T14:40:13;1.93;;;1.70;;
5869;SDS011;2961;47.702;9.410;2023-07-13T14:42:42;1.60;;;1.50;;
5869;SDS011;2961;47.702;9.410;2023-07-13T14:45:12;2.60;;;1.93;;
5869;SDS011;2961;47.702;9.410;2023-07-13T14:47:41;1.93;;;1.67;;
5869;SDS011;2961;47.702;9.410;2023-07-13T14:50:12;2.50;;;1.97;;
5869;SDS011;2961;47.702;9.410;2023-07-13T14:52:41;1.77;;;1.67;;
5869;SDS011;2961;47.702;9.410;2023-07-13T14:55:10;1.77;;;1.67;;
5869;SDS011;2961;47.702;9.410;2023-07-13T14:57:38;4.47;;;2.17;;
5869;SDS011;2961;47.702;9.410;2023-07-13T15:00:07;1.80;;;1.70;;
5869;SDS011;2961;47.702;9.410;2023-07-13T15:02:40;2.10;;;2.00;;
5869;SDS011;2961;47.702;9.410;2023-07-13T15:05:12;1.70;;;1.47;;
5869;SDS011;2961;47.702;9.410;2023-07-13T15:07:40;2.70;;;1.87;;
5869;SDS011;2961;47.702;9.410;2023-07-13T15:10:14;1.30;;;1.30;;
5869;SDS011;2961;47.702;9.410;2023-07-13T15:12:42;1.13;;;1.13;;
5869;SDS011;2961;47.702;9.410;2023-07-13T15:15:10;6.80;;;2.07;;
5869;SDS011;2961;47.702;9.410;2023-07-13T15:17:39;4.53;;;2.00;;
5869;SDS011;2961;47.702;9.410;2023-07-13T15:20:14;1.60;;;1.50;;
5869;SDS011;2961;47.702;9.410;2023-07-13T15:22:44;6.20;;;1.70;;
5869;SDS011;2961;47.702;9.410;2023-07-13T15:25:15;1.80;;;1.70;;
5869;SDS011;2961;47.702;9.410;2023-07-13T15:27:43;1.90;;;1.80;;